Time;durP1;ratioP1;P1;durP2;ratioP2;P2;SDS_P1;SDS_P2;PMS_P1;PMS_P2;Temp;Humidity;BMP_temperature;BMP_pressure;BME280_temperature;BME280_humidity;BME280_pressure;Samples;Min_cycle;Max_cycle;Signal;HPM_P1;HPM_P2
2024/04/10 00:02:27;;;;;;;9.77;2.55;;;;;;;11.00;85.12;101940.66;5709235;26;20361;-74
2024/04/10 00:04:59;;;;;;;11.32;3.08;;;;;;;11.02;85.51;101952.69;5700200;25;20022;-76
2024/04/10 00:07:31;;;;;;;9.40;2.10;;;;;;;10.99;85.24;101934.56;5700864;26;20021;-74
2024/04/10 00:10:03;;;;;;;12.88;3.55;;;;;;;11.08;85.04;101954.06;5701822;25;20336;-74
2024/04/10 00:12:35;;;;;;;11.50;2.70;;;;;;;11.12;85.22;101950.28;5678445;26;20119;-74
2024/04/10 00:15:07;;;;;;;10.43;2.67;;;;;;;11.05;85.61;101959.53;5698749;26;20289;-74
2024/04/10 00:17:39;;;;;;;12.68;2.92;;;;;;;10.99;87.19;101957.34;5674529;26;20002;-75
2024/04/10 00:20:11;;;;;;;10.43;2.28;;;;;;;11.00;86.80;101962.47;5706186;25;20005;-75
2024/04/10 00:22:43;;;;;;;10.07;3.28;;;;;;;10.98;87.23;101966.13;5701947;26;20034;-74
2024/04/10 00:25:15;;;;;;;10.43;2.92;;;;;;;10.89;88.69;101963.19;5658852;26;20006;-74
2024/04/10 00:27:47;;;;;;;6.68;2.42;;;;;;;10.99;87.17;101975.69;5705684;26;20020;-74
2024/04/10 00:30:19;;;;;;;8.10;2.53;;;;;;;10.79;86.59;101953.44;5676693;26;20030;-74
2024/04/10 00:32:51;;;;;;;12.48;3.00;;;;;;;10.92;89.27;101985.75;5708409;26;20006;-74
2024/04/10 00:35:23;;;;;;;7.10;2.65;;;;;;;10.90;87.89;101975.34;5708209;26;20371;-75
2024/04/10 00:37:55;;;;;;;12.95;3.30;;;;;;;10.87;88.38;101978.22;5705604;26;20002;-76
2024/04/10 00:40:27;;;;;;;7.55;2.33;;;;;;;10.86;88.83;101983.53;5710183;26;20017;-74
2024/04/10 00:43:02;;;;;;;9.15;2.97;;;;;;;10.97;89.15;101996.75;5707222;26;20002;-74
2024/04/10 00:45:38;;;;;;;8.65;2.28;;;;;;;10.90;89.23;101985.00;5703541;26;20046;-74
2024/04/10 00:48:10;;;;;;;7.93;2.53;;;;;;;10.88;90.80;101998.22;5706325;26;20030;-74
2024/04/10 00:50:42;;;;;;;11.35;2.85;;;;;;;10.89;90.18;102004.31;5707130;26;20494;-74
2024/04/10 00:53:14;;;;;;;13.43;2.85;;;;;;;10.90;90.41;102003.34;5666217;26;20015;-74
2024/04/10 00:55:47;;;;;;;13.68;2.83;;;;;;;10.92;90.04;101999.69;5695438;25;20016;-74
2024/04/10 00:58:20;;;;;;;9.13;2.92;;;;;;;10.99;90.48;102004.53;5705049;26;20461;-74
2024/04/10 01:00:53;;;;;;;10.23;2.53;;;;;;;10.95;90.41;101994.25;5671595;26;20034;-76
2024/04/10 01:03:25;;;;;;;10.55;2.85;;;;;;;10.95;89.63;101990.78;5704273;26;20042;-74
2024/04/10 01:06:02;;;;;;;10.80;2.42;;;;;;;11.05;91.90;101996.22;5701695;26;20053;-74
2024/04/10 01:08:36;;;;;;;9.25;2.17;;;;;;;11.03;91.12;102008.63;5686820;26;20372;-74
2024/04/10 01:11:08;;;;;;;9.90;2.92;;;;;;;11.03;90.29;102012.09;5687669;26;20371;-74
2024/04/10 01:13:40;;;;;;;11.57;2.80;;;;;;;11.02;88.87;102018.25;5654431;26;20610;-74
2024/04/10 01:16:12;;;;;;;8.93;2.80;;;;;;;11.00;90.00;102025.41;5681950;26;20022;-74
2024/04/10 01:18:44;;;;;;;10.23;2.38;;;;;;;10.99;90.09;102022.91;5680564;26;20005;-74
2024/04/10 01:21:16;;;;;;;9.48;2.67;;;;;;;10.96;91.33;102032.63;5682664;26;20021;-74
2024/04/10 01:23:48;;;;;;;9.02;2.58;;;;;;;10.93;92.55;102037.25;5688290;26;20051;-74
2024/04/10 01:26:19;;;;;;;7.85;2.30;;;;;;;10.88;92.96;102037.56;5679734;26;20037;-74
2024/04/10 01:28:51;;;;;;;10.75;2.67;;;;;;;10.86;93.04;102033.34;5685962;26;20248;-74
2024/04/10 01:31:26;;;;;;;7.80;2.65;;;;;;;10.90;93.98;102064.50;5685754;26;20003;-75
2024/04/10 01:33:58;;;;;;;11.70;3.20;;;;;;;10.88;95.24;102052.44;5650652;26;20038;-74
2024/04/10 01:36:30;;;;;;;13.13;3.13;;;;;;;10.88;98.68;102065.56;5678241;26;20015;-74
2024/04/10 01:39:03;;;;;;;7.57;2.17;;;;;;;10.92;100.00;102061.78;5682203;26;20045;-74
2024/04/10 01:41:35;;;;;;;;;;;;;;;11.58;94.90;102059.91;5683907;26;20579;-75
2024/04/10 01:44:07;;;;;;;10.48;2.28;;;;;;;10.96;100.00;102064.09;5685007;26;20989;-74
2024/04/10 01:46:39;;;;;;;10.00;2.67;;;;;;;10.89;100.00;102057.59;5691033;26;20007;-74
2024/04/10 01:49:11;;;;;;;8.27;2.70;;;;;;;10.85;100.00;102061.34;5681043;26;20383;-74
2024/04/10 01:51:43;;;;;;;12.35;3.28;;;;;;;10.79;100.00;102067.00;5649309;26;20404;-77
2024/04/10 01:54:15;;;;;;;12.60;3.20;;;;;;;10.74;100.00;102073.50;5654424;26;20002;-74
2024/04/10 01:56:46;;;;;;;9.85;3.00;;;;;;;10.77;100.00;102075.91;5684008;26;20045;-74
2024/04/10 01:59:18;;;;;;;7.68;2.60;;;;;;;10.75;100.00;102083.03;5682750;26;20416;-76
2024/04/10 02:01:50;;;;;;;8.90;2.25;;;;;;;10.78;100.00;102093.31;5684630;26;20002;-77
2024/04/10 02:04:22;;;;;;;7.32;2.60;;;;;;;10.75;100.00;102104.84;5651308;26;20006;-75
2024/04/10 02:06:55;;;;;;;6.38;2.38;;;;;;;10.74;100.00;102108.41;5651632;26;20002;-74
2024/04/10 02:09:27;;;;;;;10.52;3.13;;;;;;;10.77;100.00;102110.00;5678517;26;20050;-74
2024/04/10 02:11:59;;;;;;;10.05;3.05;;;;;;;10.68;100.00;102095.69;5653579;26;20070;-75
2024/04/10 02:14:32;;;;;;;8.55;2.30;;;;;;;10.74;100.00;102103.16;5684116;26;20034;-74
2024/04/10 02:17:04;;;;;;;11.20;3.33;;;;;;;10.74;100.00;102102.31;5651040;26;20549;-77
2024/04/10 02:19:36;;;;;;;8.55;2.72;;;;;;;10.77;100.00;102113.44;5686563;26;20021;-76
2024/04/10 02:22:08;;;;;;;7.65;2.85;;;;;;;10.77;100.00;102116.06;5686887;26;20034;-73
2024/04/10 02:24:40;;;;;;;9.30;2.33;;;;;;;10.69;100.00;102107.88;5636336;26;20017;-76
2024/04/10 02:27:12;;;;;;;10.05;2.85;;;;;;;10.77;100.00;102128.34;5674187;26;20005;-76
2024/04/10 02:29:43;;;;;;;7.80;2.63;;;;;;;10.78;100.00;102130.84;5681958;26;20054;-75
2024/04/10 02:32:15;;;;;;;7.50;2.40;;;;;;;10.79;100.00;102127.28;5679544;26;20009;-76
2024/04/10 02:34:47;;;;;;;12.45;2.88;;;;;;;10.82;100.00;102134.94;5686298;26;22021;-75
2024/04/10 02:37:19;;;;;;;7.93;3.67;;;;;;;10.72;100.00;102123.41;5686900;26;21073;-76
2024/04/10 02:39:51;;;;;;;9.98;2.45;;;;;;;10.81;100.00;102145.56;5694326;26;20010;-75
2024/04/10 02:42:23;;;;;;;8.40;2.60;;;;;;;10.77;100.00;102137.03;5657258;26;20030;-76
2024/04/10 02:44:55;;;;;;;7.18;2.83;;;;;;;10.80;100.00;102152.59;5688727;26;20006;-76
2024/04/10 02:47:27;;;;;;;8.07;2.92;;;;;;;10.80;100.00;102159.59;5684465;26;20006;-76
2024/04/10 02:49:59;;;;;;;11.07;2.78;;;;;;;10.72;100.00;102160.09;5689996;26;20030;-75
2024/04/10 02:52:31;;;;;;;9.90;3.13;;;;;;;10.78;100.00;102172.78;5689191;26;20017;-75
2024/04/10 02:55:03;;;;;;;10.63;3.72;;;;;;;10.75;100.00;102175.59;5682636;26;20010;-75
2024/04/10 02:57:35;;;;;;;8.50;2.70;;;;;;;10.76;100.00;102179.94;5687462;26;20346;-76
2024/04/10 03:00:10;;;;;;;9.43;2.67;;;;;;;10.71;100.00;102176.75;5688744;26;20038;-76
2024/04/10 03:02:42;;;;;;;8.23;2.55;;;;;;;10.70;100.00;102186.41;5689425;26;20042;-74
2024/04/10 03:05:14;;;;;;;9.15;3.65;;;;;;;10.68;100.00;102190.03;5686062;26;19999;-76
2024/04/10 03:07:46;;;;;;;8.45;2.78;;;;;;;10.63;100.00;102185.09;5685197;26;20646;-74
2024/04/10 03:10:18;;;;;;;9.07;2.50;;;;;;;10.58;100.00;102175.88;5681449;26;20011;-75
2024/04/10 03:12:50;;;;;;;7.75;2.25;;;;;;;10.67;100.00;102191.00;5683032;26;20466;-74
2024/04/10 03:15:22;;;;;;;12.63;3.13;;;;;;;10.68;100.00;102196.16;5680741;26;20010;-74
2024/04/10 03:17:53;;;;;;;11.15;2.65;;;;;;;10.74;100.00;102205.38;5643429;26;20026;-76
2024/04/10 03:20:26;;;;;;;7.75;2.67;;;;;;;10.73;100.00;102208.97;5682714;26;20460;-74
2024/04/10 03:22:59;;;;;;;6.35;2.55;;;;;;;10.75;100.00;102200.97;5686490;26;20038;-75
2024/04/10 03:25:33;;;;;;;;;;;;;;;11.54;100.00;102223.78;5683990;26;20928;-76
2024/04/10 03:28:05;;;;;;;7.75;2.17;;;;;;;10.88;100.00;102220.25;5690578;26;20050;-76
2024/04/10 03:30:37;;;;;;;5.87;2.37;;;;;;;10.84;100.00;102224.84;5683935;26;20043;-76
2024/04/10 03:33:09;;;;;;;8.00;2.78;;;;;;;10.77;100.00;102222.72;5691698;26;20459;-76
2024/04/10 03:35:41;;;;;;;6.97;2.20;;;;;;;10.70;100.00;102220.47;5687820;26;20448;-75
2024/04/10 03:38:13;;;;;;;6.40;2.67;;;;;;;10.71;100.00;102229.16;5690307;26;20010;-76
2024/04/10 03:40:44;;;;;;;10.43;2.60;;;;;;;10.71;100.00;102227.38;5684747;26;20002;-75
2024/04/10 03:43:16;;;;;;;9.48;2.65;;;;;;;10.71;100.00;102235.25;5682458;26;20028;-76
2024/04/10 03:45:51;;;;;;;8.02;2.65;;;;;;;10.68;100.00;102245.09;5688621;26;20024;-76
2024/04/10 03:48:23;;;;;;;7.50;2.88;;;;;;;10.66;100.00;102245.19;5690973;26;21110;-76
2024/04/10 03:50:59;;;;;;;8.07;2.80;;;;;;;10.78;100.00;102246.19;5677344;26;20034;-75
2024/04/10 03:53:31;;;;;;;8.57;3.03;;;;;;;10.69;100.00;102262.50;5680092;26;20422;-76
2024/04/10 03:56:03;;;;;;;7.55;2.50;;;;;;;10.63;100.00;102250.63;5688106;26;20505;-75
2024/04/10 03:58:36;;;;;;;6.45;2.33;;;;;;;10.70;100.00;102272.06;5680551;26;20024;-76
2024/04/10 04:01:08;;;;;;;4.95;2.10;;;;;;;10.74;100.00;102275.31;5657326;26;20105;-76
2024/04/10 04:03:40;;;;;;;8.50;2.13;;;;;;;10.72;100.00;102272.81;5681456;26;20016;-75
2024/04/10 04:06:12;;;;;;;6.07;2.30;;;;;;;10.74;100.00;102278.78;5686480;26;20522;-75
2024/04/10 04:08:46;;;;;;;5.80;2.30;;;;;;;10.70;100.00;102279.91;5687573;26;20002;-75
2024/04/10 04:11:17;;;;;;;5.75;2.40;;;;;;;10.64;100.00;102277.66;5683111;26;20375;-75
2024/04/10 04:13:49;;;;;;;9.15;2.65;;;;;;;10.67;100.00;102282.72;5689926;26;20016;-76
2024/04/10 04:16:21;;;;;;;6.32;2.53;;;;;;;10.65;100.00;102289.84;5679807;26;20002;-76
2024/04/10 04:18:53;;;;;;;7.47;2.42;;;;;;;10.63;100.00;102289.09;5691756;26;20006;-76
2024/04/10 04:21:25;;;;;;;6.18;2.10;;;;;;;10.62;100.00;102300.53;5684342;26;20451;-76
2024/04/10 04:23:58;;;;;;;4.15;1.90;;;;;;;10.56;100.00;102293.88;5681321;26;20477;-76
2024/04/10 04:26:30;;;;;;;8.77;2.55;;;;;;;10.66;100.00;102310.72;5685410;26;20500;-76
2024/04/10 04:29:02;;;;;;;6.50;2.00;;;;;;;10.65;100.00;102316.06;5690506;26;20017;-75
2024/04/10 04:31:36;;;;;;;7.07;2.25;;;;;;;10.70;100.00;102303.50;5684965;26;20010;-75
2024/04/10 04:34:12;;;;;;;7.75;2.00;;;;;;;10.58;100.00;102320.84;5684072;26;20062;-75
2024/04/10 04:36:45;;;;;;;7.78;2.00;;;;;;;10.54;100.00;102315.88;5689137;26;20375;-76
2024/04/10 04:39:17;;;;;;;5.70;2.30;;;;;;;10.60;100.00;102328.59;5650462;26;20304;-76
2024/04/10 04:41:50;;;;;;;7.28;2.30;;;;;;;10.52;100.00;102336.09;5685954;26;20030;-75
2024/04/10 04:44:22;;;;;;;5.57;1.80;;;;;;;10.48;100.00;102336.25;5685067;26;20073;-76
2024/04/10 04:46:54;;;;;;;5.38;2.15;;;;;;;10.43;100.00;102338.31;5691486;26;20014;-75
2024/04/10 04:49:26;;;;;;;4.25;2.20;;;;;;;10.37;100.00;102324.75;5688154;26;20498;-75
2024/04/10 04:51:58;;;;;;;8.18;2.20;;;;;;;10.33;100.00;102334.56;5687471;26;20025;-76
2024/04/10 04:54:30;;;;;;;7.00;2.20;;;;;;;10.37;100.00;102354.41;5682976;26;20006;-75
2024/04/10 04:57:03;;;;;;;7.47;2.10;;;;;;;10.29;100.00;102347.94;5690098;26;20047;-74
2024/04/10 04:59:34;;;;;;;7.57;2.25;;;;;;;10.34;100.00;102358.97;5678955;26;20328;-75
2024/04/10 05:02:06;;;;;;;5.55;1.83;;;;;;;10.24;100.00;102367.38;5674746;26;20079;-76
2024/04/10 05:07:29;;;;;;;7.20;2.78;;;;;;;10.23;100.00;102381.41;5683672;26;20014;-74
2024/04/10 05:10:01;;;;;;;6.53;2.40;;;;;;;10.21;100.00;102385.88;5648723;26;20493;-75
2024/04/10 05:12:32;;;;;;;5.75;2.15;;;;;;;10.10;100.00;102377.81;5688398;26;20014;-75
2024/04/10 05:15:07;;;;;;;6.10;2.40;;;;;;;10.12;100.00;102391.66;5677650;26;20022;-75
2024/04/10 05:17:44;;;;;;;7.32;2.67;;;;;;;10.06;100.00;102394.63;5686578;26;20029;-76
2024/04/10 05:20:16;;;;;;;10.18;3.28;;;;;;;9.94;100.00;102385.72;5692087;26;20034;-75
2024/04/10 05:22:48;;;;;;;8.40;3.05;;;;;;;9.99;100.00;102403.75;5690098;26;20482;-74
2024/04/10 05:25:20;;;;;;;7.43;3.00;;;;;;;9.94;100.00;102406.66;5686439;26;20003;-76
2024/04/10 05:27:52;;;;;;;6.75;2.75;;;;;;;9.92;100.00;102403.25;5691509;26;20446;-75
2024/04/10 05:30:24;;;;;;;5.30;2.63;;;;;;;9.92;100.00;102411.13;5676630;26;20057;-76
2024/04/10 05:32:56;;;;;;;8.30;3.33;;;;;;;9.88;100.00;102416.63;5685370;26;20006;-75
2024/04/10 05:35:28;;;;;;;9.63;3.05;;;;;;;9.84;100.00;102431.66;5673525;26;20010;-75
2024/04/10 05:38:00;;;;;;;6.30;2.65;;;;;;;9.82;100.00;102433.53;5671262;26;20086;-75
2024/04/10 05:40:32;;;;;;;9.93;3.42;;;;;;;9.81;100.00;102439.72;5685382;26;20006;-75
2024/04/10 05:43:04;;;;;;;8.57;3.28;;;;;;;9.86;100.00;102458.59;5680981;26;20050;-75
2024/04/10 05:45:36;;;;;;;8.77;3.42;;;;;;;9.71;100.00;102439.34;5681720;26;20015;-74
2024/04/10 05:48:08;;;;;;;9.48;3.47;;;;;;;9.82;100.00;102454.47;5688912;26;20054;-73
2024/04/10 05:50:41;;;;;;;8.52;3.40;;;;;;;9.85;100.00;102471.75;5680332;26;20006;-76
2024/04/10 05:53:13;;;;;;;6.80;3.45;;;;;;;9.93;100.00;102472.19;5683520;26;20085;-73
2024/04/10 05:55:44;;;;;;;8.60;2.90;;;;;;;9.91;100.00;102477.50;5677042;26;20368;-75
2024/04/10 05:58:16;;;;;;;10.32;3.80;;;;;;;9.82;100.00;102466.72;5673037;26;20481;-75
2024/04/10 06:00:48;;;;;;;10.25;3.47;;;;;;;9.95;100.00;102483.41;5683598;26;20042;-75
2024/04/10 06:03:20;;;;;;;9.13;3.83;;;;;;;9.95;100.00;102496.50;5683070;26;20485;-75
2024/04/10 06:05:53;;;;;;;8.98;3.10;;;;;;;9.98;100.00;102497.19;5687292;26;20016;-76
2024/04/10 06:08:25;;;;;;;10.05;3.10;;;;;;;10.04;100.00;102505.63;5676844;26;20958;-75
2024/04/10 06:10:57;;;;;;;7.45;3.33;;;;;;;10.07;100.00;102508.06;5680458;26;20017;-76
2024/04/10 06:13:29;;;;;;;7.47;2.95;;;;;;;10.11;100.00;102512.19;5690682;26;20002;-76
2024/04/10 06:16:03;;;;;;;10.73;3.45;;;;;;;10.20;100.00;102530.88;5680832;26;20018;-76
2024/04/10 06:18:36;;;;;;;12.35;3.47;;;;;;;10.34;100.00;102527.50;5684099;26;20425;-75
2024/04/10 06:21:08;;;;;;;9.32;3.13;;;;;;;10.41;100.00;102526.22;5683320;26;20049;-76
2024/04/10 06:23:41;;;;;;;7.93;2.80;;;;;;;10.55;100.00;102525.41;5684989;26;20021;-74
2024/04/10 06:26:13;;;;;;;8.15;2.88;;;;;;;10.67;100.00;102531.72;5678197;26;20006;-75
2024/04/10 06:28:45;;;;;;;9.38;3.30;;;;;;;10.69;100.00;102525.47;5674938;26;20033;-76
2024/04/10 06:31:17;;;;;;;7.88;2.75;;;;;;;10.76;100.00;102533.84;5677935;26;20014;-74
2024/04/10 06:33:50;;;;;;;8.65;3.10;;;;;;;10.88;100.00;102538.34;5683273;26;20017;-76
2024/04/10 06:36:21;;;;;;;6.97;2.38;;;;;;;10.98;100.00;102536.00;5682004;26;20042;-74
2024/04/10 06:38:53;;;;;;;9.50;3.30;;;;;;;11.04;100.00;102548.75;5680693;26;20022;-76
2024/04/10 06:41:25;;;;;;;9.05;2.35;;;;;;;11.00;100.00;102546.41;5687596;26;20018;-76
2024/04/10 06:43:57;;;;;;;7.28;2.10;;;;;;;11.05;100.00;102550.44;5684632;26;20344;-76
2024/04/10 06:46:30;;;;;;;9.52;2.85;;;;;;;11.04;100.00;102554.00;5677701;26;20025;-76
2024/04/10 06:49:02;;;;;;;;;;;;;;;11.74;100.00;102555.88;5673453;26;20020;-75
2024/04/10 06:51:34;;;;;;;7.35;2.00;;;;;;;11.07;100.00;102564.31;5676559;26;19932;-74
2024/04/10 06:54:06;;;;;;;9.25;2.47;;;;;;;11.07;100.00;102566.09;5677585;26;20420;-76
2024/04/10 06:56:38;;;;;;;6.82;2.15;;;;;;;11.19;100.00;102568.00;5682752;26;20007;-76
2024/04/10 06:59:10;;;;;;;11.82;2.67;;;;;;;11.29;100.00;102573.50;5681494;26;20011;-74
2024/04/10 07:01:42;;;;;;;8.68;2.30;;;;;;;11.33;100.00;102581.13;5684294;26;20018;-76
2024/04/10 07:04:14;;;;;;;9.30;2.28;;;;;;;11.34;100.00;102582.81;5680449;26;20027;-76
2024/04/10 07:06:46;;;;;;;8.55;2.20;;;;;;;11.36;100.00;102580.09;5684930;26;20009;-75
2024/04/10 07:09:18;;;;;;;6.93;1.90;;;;;;;11.49;100.00;102583.66;5687645;26;20010;-76
2024/04/10 07:11:50;;;;;;;9.77;2.15;;;;;;;11.68;100.00;102594.72;5676708;26;20031;-75
2024/04/10 07:14:22;;;;;;;7.82;2.60;;;;;;;11.75;100.00;102604.88;5681729;26;20021;-76
2024/04/10 07:16:54;;;;;;;9.75;2.28;;;;;;;11.78;100.00;102602.91;5683938;26;20017;-75
2024/04/10 07:19:26;;;;;;;6.70;2.50;;;;;;;11.90;100.00;102612.66;5684724;26;20009;-75
2024/04/10 07:21:58;;;;;;;7.68;1.75;;;;;;;12.00;100.00;102610.28;5640262;26;20057;-76
2024/04/10 07:24:30;;;;;;;9.95;2.15;;;;;;;12.08;100.00;102612.44;5679852;26;20010;-76
2024/04/10 07:27:02;;;;;;;8.20;2.40;;;;;;;12.19;99.49;102609.97;5686659;26;20021;-75
2024/04/10 07:29:34;;;;;;;8.43;2.20;;;;;;;12.23;94.26;102600.13;5679894;26;20006;-75
2024/04/10 07:32:06;;;;;;;9.75;2.10;;;;;;;12.35;94.58;102621.22;5683467;26;20422;-75
2024/04/10 07:34:38;;;;;;;8.70;2.05;;;;;;;12.44;94.91;102619.78;5683521;26;20585;-76
2024/04/10 07:37:12;;;;;;;8.40;2.17;;;;;;;12.51;91.16;102617.59;5678527;26;20021;-76
2024/04/10 07:39:44;;;;;;;8.55;2.50;;;;;;;12.66;91.35;102619.22;5685591;26;20034;-76
2024/04/10 07:42:16;;;;;;;9.35;2.10;;;;;;;12.71;88.06;102605.78;5680862;26;21919;-76
2024/04/10 07:44:51;;;;;;;7.13;2.17;;;;;;;12.83;90.33;102615.47;5678247;26;20002;-76
2024/04/10 07:47:23;;;;;;;7.65;2.10;;;;;;;12.84;89.19;102632.94;5684498;26;20061;-75
2024/04/10 07:49:55;;;;;;;8.35;2.10;;;;;;;12.90;83.27;102630.75;5683239;26;20002;-75
2024/04/10 07:52:27;;;;;;;9.30;2.20;;;;;;;12.97;81.47;102622.47;5679127;26;20007;-74
2024/04/10 07:54:59;;;;;;;7.50;2.47;;;;;;;13.07;83.58;102627.03;5680963;26;20483;-76
2024/04/10 07:57:31;;;;;;;7.47;2.28;;;;;;;13.10;82.87;102625.94;5678793;26;20024;-75
2024/04/10 08:00:03;;;;;;;6.45;1.88;;;;;;;13.14;78.03;102632.69;5684373;26;20013;-76
2024/04/10 08:02:35;;;;;;;7.10;1.98;;;;;;;13.23;78.05;102645.28;5672175;26;20039;-75
2024/04/10 08:05:09;;;;;;;7.07;2.42;;;;;;;13.33;78.63;102649.00;5675912;26;20480;-76
2024/04/10 08:07:41;;;;;;;9.10;2.60;;;;;;;13.38;75.10;102657.41;5680818;26;20046;-75
2024/04/10 08:10:13;;;;;;;7.65;2.10;;;;;;;13.52;76.73;102643.28;5684723;26;20565;-76
2024/04/10 08:12:45;;;;;;;8.50;2.95;;;;;;;13.65;74.19;102658.25;5684802;26;20025;-76
2024/04/10 08:15:17;;;;;;;8.90;1.90;;;;;;;13.75;72.29;102661.94;5682316;26;20004;-75
2024/04/10 08:17:49;;;;;;;9.07;2.25;;;;;;;13.90;74.21;102662.66;5680681;26;20099;-76
2024/04/10 08:20:21;;;;;;;10.73;2.28;;;;;;;13.83;72.29;102657.00;5680424;26;20463;-75
2024/04/10 08:22:53;;;;;;;7.03;2.55;;;;;;;13.81;71.09;102672.88;5685410;26;20066;-75
2024/04/10 08:25:25;;;;;;;8.23;2.10;;;;;;;13.97;75.21;102648.94;5682164;26;20017;-76
2024/04/10 08:27:57;;;;;;;7.63;2.20;;;;;;;13.93;66.45;102657.16;5638884;26;20447;-76
2024/04/10 08:30:29;;;;;;;4.85;1.67;;;;;;;13.84;66.22;102666.56;5688273;26;20014;-76
2024/04/10 08:33:01;;;;;;;8.65;2.05;;;;;;;13.81;67.31;102672.88;5684799;26;20328;-74
2024/04/10 08:35:34;;;;;;;6.00;2.10;;;;;;;13.78;66.37;102680.16;5685460;26;20024;-76
2024/04/10 08:38:06;;;;;;;8.25;1.88;;;;;;;13.70;64.66;102682.47;5656950;26;21117;-76
2024/04/10 08:40:38;;;;;;;8.88;1.55;;;;;;;13.59;65.87;102677.94;5688819;26;20017;-76
2024/04/10 08:43:13;;;;;;;7.53;1.92;;;;;;;13.58;67.33;102671.00;5651456;26;20313;-76
2024/04/10 08:45:49;;;;;;;6.40;1.98;;;;;;;13.61;65.81;102691.88;5688852;26;20069;-75
2024/04/10 08:48:21;;;;;;;5.15;1.50;;;;;;;13.57;67.02;102690.38;5692143;26;20037;-75
2024/04/10 08:50:59;;;;;;;6.70;1.92;;;;;;;13.58;68.99;102692.91;5675890;26;20013;-76
2024/04/10 08:53:35;;;;;;;7.90;2.10;;;;;;;13.55;63.52;102702.81;5687236;26;20027;-75
2024/04/10 08:56:07;;;;;;;6.45;1.55;;;;;;;13.47;63.81;102702.47;5683687;26;20018;-75
2024/04/10 08:58:39;;;;;;;9.52;1.98;;;;;;;13.57;66.72;102695.66;5645759;26;20433;-76
2024/04/10 09:01:28;;;;;;;6.67;2.10;;;;;;;14.19;67.54;102711.53;5675780;26;20006;-76
2024/04/10 09:04:14;;;;;;;7.35;1.88;;;;;;;14.12;62.28;102705.00;5678350;26;20008;-76
2024/04/10 09:06:46;;;;;;;5.43;1.63;;;;;;;14.08;61.71;102724.63;5671769;26;20013;-75
2024/04/10 09:09:23;;;;;;;7.95;2.42;;;;;;;14.35;64.47;102714.75;5679901;26;20621;-74
2024/04/10 09:11:54;;;;;;;5.68;1.83;;;;;;;14.40;59.95;102711.81;5699428;26;20038;-76
2024/04/10 09:14:27;;;;;;;7.10;1.92;;;;;;;14.65;60.86;102712.72;5697217;26;20006;-74
2024/04/10 09:17:04;;;;;;;7.38;1.75;;;;;;;15.01;60.47;102722.38;5689037;26;20128;-76
2024/04/10 09:19:35;;;;;;;7.18;1.83;;;;;;;15.10;58.28;102726.97;5693426;26;20033;-76
2024/04/10 09:22:10;;;;;;;6.68;2.08;;;;;;;15.40;56.95;102725.66;5692723;26;20018;-77
2024/04/10 09:24:42;;;;;;;5.95;1.85;;;;;;;15.49;56.48;102730.22;5692514;26;20573;-77
2024/04/10 09:27:14;;;;;;;6.30;1.77;;;;;;;15.46;54.99;102733.97;5690409;26;20022;-76
2024/04/10 09:29:46;;;;;;;6.50;1.83;;;;;;;15.37;53.96;102710.03;5694670;26;20034;-76
2024/04/10 09:32:20;;;;;;;5.78;1.55;;;;;;;15.42;52.78;102719.31;5690466;26;20486;-74
2024/04/10 09:34:54;;;;;;;9.10;2.13;;;;;;;15.41;54.24;102719.41;5690091;26;20045;-74
2024/04/10 09:37:28;;;;;;;7.18;2.13;;;;;;;15.43;53.26;102726.25;5690628;26;20069;-76
2024/04/10 09:40:01;;;;;;;6.72;1.80;;;;;;;15.69;53.02;102737.53;5690879;26;20041;-76
2024/04/10 09:42:39;;;;;;;5.20;1.77;;;;;;;15.97;50.74;102730.94;5692380;26;20046;-76
2024/04/10 09:45:21;;;;;;;5.72;1.92;;;;;;;15.88;48.81;102726.38;5694028;26;20042;-75
2024/04/10 09:47:56;;;;;;;6.55;1.63;;;;;;;16.05;50.43;102717.97;5689548;26;20078;-77
2024/04/10 09:50:29;;;;;;;5.05;1.65;;;;;;;16.19;50.14;102724.81;5686473;26;20050;-75
2024/04/10 09:53:05;;;;;;;6.05;2.08;;;;;;;16.39;51.86;102711.81;5694533;26;20416;-77
2024/04/10 09:55:38;;;;;;;6.15;1.90;;;;;;;16.36;48.27;102710.25;5694549;26;20041;-76
2024/04/10 09:58:10;;;;;;;4.22;1.42;;;;;;;16.57;48.59;102728.88;5690342;26;20039;-76
2024/04/10 10:00:43;;;;;;;4.38;1.38;;;;;;;16.72;50.26;102732.91;5685675;26;20020;-75
2024/04/10 10:03:24;;;;;;;4.90;1.43;;;;;;;17.01;47.78;102727.09;5692120;26;20065;-76
2024/04/10 10:06:07;;;;;;;6.95;1.67;;;;;;;16.96;42.64;102730.09;5692157;26;20030;-77
2024/04/10 10:08:50;;;;;;;5.05;1.20;;;;;;;16.98;44.60;102728.19;5690062;26;20392;-77
2024/04/10 10:11:25;;;;;;;;;;;;;;;17.76;43.86;102742.00;5693708;26;20074;-75
2024/04/10 10:13:57;;;;;;;7.05;1.90;;;;;;;17.02;42.20;102732.25;5688510;26;20457;-75
2024/04/10 10:16:33;;;;;;;6.68;1.40;;;;;;;17.08;43.48;102744.13;5689777;26;20042;-77
2024/04/10 10:19:05;;;;;;;6.43;1.40;;;;;;;17.01;43.26;102745.63;5657449;26;20321;-76
2024/04/10 10:21:37;;;;;;;4.60;1.48;;;;;;;17.15;42.95;102740.00;5688413;26;20042;-77
2024/04/10 10:24:12;;;;;;;5.15;1.55;;;;;;;17.15;43.67;102747.97;5690445;26;20021;-75
2024/04/10 10:26:44;;;;;;;6.78;1.40;;;;;;;17.08;41.26;102749.44;5691170;26;20371;-77
2024/04/10 10:29:17;;;;;;;5.97;1.27;;;;;;;17.32;40.87;102751.88;5690840;26;20021;-76
2024/04/10 10:31:49;;;;;;;3.50;1.38;;;;;;;17.39;41.37;102749.56;5690171;26;20458;-77
2024/04/10 10:34:22;;;;;;;5.25;1.45;;;;;;;17.50;40.39;102754.78;5688862;26;20021;-75
2024/04/10 10:36:54;;;;;;;4.15;1.40;;;;;;;17.45;41.40;102752.53;5694369;26;20519;-76
2024/04/10 10:39:27;;;;;;;4.68;1.27;;;;;;;17.64;40.65;102756.28;5685875;26;20084;-77
2024/04/10 10:42:02;;;;;;;5.70;1.75;;;;;;;17.59;38.07;102740.78;5691522;26;20030;-76
2024/04/10 10:44:34;;;;;;;3.83;1.60;;;;;;;17.70;38.55;102750.47;5691013;26;20088;-76
2024/04/10 10:47:07;;;;;;;3.13;1.13;;;;;;;17.65;37.61;102755.28;5691399;26;20063;-75
2024/04/10 10:49:39;;;;;;;4.82;1.30;;;;;;;17.64;39.98;102757.09;5692154;26;20034;-77
2024/04/10 10:52:11;;;;;;;4.70;1.58;;;;;;;17.67;38.43;102754.22;5659114;26;20002;-76
2024/04/10 10:54:43;;;;;;;4.50;1.50;;;;;;;17.91;39.63;102764.56;5693390;26;20380;-76
2024/04/10 10:57:17;;;;;;;6.82;1.35;;;;;;;18.13;39.54;102757.41;5650640;26;20026;-75
2024/04/10 10:59:48;;;;;;;4.60;1.17;;;;;;;17.93;36.69;102769.75;5694863;26;20125;-76
2024/04/10 11:02:20;;;;;;;3.95;1.13;;;;;;;17.98;37.52;102770.19;5690704;26;20007;-78
2024/04/10 11:04:57;;;;;;;4.75;0.88;;;;;;;18.23;38.21;102780.38;5692519;26;20012;-77
2024/04/10 11:07:29;;;;;;;5.53;1.30;;;;;;;18.10;37.63;102774.41;5684837;26;20037;-77
2024/04/10 11:10:10;;;;;;;3.28;1.00;;;;;;;18.24;36.71;102770.59;5690033;26;20455;-77
2024/04/10 11:12:42;;;;;;;3.05;1.00;;;;;;;18.02;36.50;102771.59;5685755;26;20406;-77
2024/04/10 11:15:14;;;;;;;6.28;1.52;;;;;;;18.19;37.73;102770.16;5694554;26;20009;-77
2024/04/10 11:17:46;;;;;;;5.95;1.23;;;;;;;18.34;37.51;102765.31;5687323;26;20038;-77
2024/04/10 11:20:18;;;;;;;3.00;1.10;;;;;;;18.36;35.75;102755.41;5684783;26;20006;-77
2024/04/10 11:22:51;;;;;;;4.00;1.27;;;;;;;18.60;37.57;102761.22;5687976;26;20008;-77
2024/04/10 11:25:23;;;;;;;;;;;;;;;19.33;37.59;102764.38;5687913;26;20046;-77
2024/04/10 11:27:58;;;;;;;3.17;1.10;;;;;;;18.48;35.55;102765.78;5685580;26;20388;-75
2024/04/10 11:30:31;;;;;;;5.40;1.40;;;;;;;18.33;35.14;102763.63;5685331;26;20039;-76
2024/04/10 11:33:06;;;;;;;5.10;1.48;;;;;;;18.43;35.91;102764.50;5693725;26;20491;-77
2024/04/10 11:35:39;;;;;;;6.45;1.13;;;;;;;18.40;36.95;102754.16;5692178;26;20061;-75
2024/04/10 11:38:11;;;;;;;5.65;1.45;;;;;;;18.59;36.82;102772.78;5689052;26;20003;-77
2024/04/10 11:40:43;;;;;;;4.57;1.13;;;;;;;18.51;37.62;102767.31;5692457;26;20025;-75
2024/04/10 11:43:15;;;;;;;5.43;1.50;;;;;;;18.27;36.88;102770.31;5686889;26;20058;-76
2024/04/10 11:45:47;;;;;;;4.82;1.50;;;;;;;18.03;37.75;102761.81;5650509;26;20466;-74
2024/04/10 11:48:19;;;;;;;3.88;1.40;;;;;;;17.90;37.50;102773.50;5694678;26;20002;-77
2024/04/10 11:50:52;;;;;;;4.13;1.20;;;;;;;17.88;38.51;102779.88;5689325;26;20017;-77